Terminal Aerodrome Forecast
Issued by NWS

Current Version | Previous Version | Text Only | Print | Product List | Glossary Off
Versions: 1 2 3 4 5 6 7 8 9 10 11 12 13 14 15 16 17 18 19 20 21 22 23 24 25 26 27 28

282
FTUS41 KPBZ 220413 AAC
TAFHLG
TAF AMD
KHLG 220413Z 2204/2224 34003KT 3SM BR BKN015
      TEMPO 2208/2212 2SM BR
     FM221400 33004KT P6SM BKN025
     FM221600 32005KT P6SM VCSH BKN035=

USA.gov is the U.S. government's official web portal to all federal, state and local government web resources and services.